Time;durP1;ratioP1;P1;durP2;ratioP2;P2;SDS_P1;SDS_P2;PMS_P1;PMS_P2;Temp;Humidity;BMP_temperature;BMP_pressure;BME280_temperature;BME280_humidity;BME280_pressure;Samples;Min_cycle;Max_cycle;Signal;HPM_P1;HPM_P2
2022/06/17 00:00:50;;;;;;;3.00;2.80;;;17.80;91.70;;;;;;4966663;28;20484;-87
2022/06/17 00:03:17;;;;;;;4.80;3.23;;;17.80;91.70;;;;;;4977843;28;22064;-88
2022/06/17 00:05:43;;;;;;;3.03;2.83;;;17.80;92.50;;;;;;4976474;28;20869;-88
2022/06/17 00:08:22;;;;;;;3.50;3.30;;;17.70;93.10;;;;;;4981626;28;20494;-87
2022/06/17 00:10:48;;;;;;;3.33;3.10;;;17.60;93.00;;;;;;4971727;28;20568;-88
2022/06/17 00:13:16;;;;;;;3.30;3.03;;;17.60;93.10;;;;;;4979100;28;20464;-88
2022/06/17 00:15:45;;;;;;;3.23;3.03;;;17.60;93.90;;;;;;4980700;28;20262;-88
2022/06/17 00:18:14;;;;;;;3.20;3.00;;;17.50;94.60;;;;;;4969828;28;21005;-87
2022/06/17 00:20:40;;;;;;;3.50;3.20;;;17.40;95.20;;;;;;4979922;28;21147;-88
2022/06/17 00:23:12;;;;;;;3.23;3.03;;;17.20;95.40;;;;;;4978912;28;20515;-88
2022/06/17 00:25:38;;;;;;;3.20;2.90;;;17.20;95.30;;;;;;4975671;28;20447;-87
2022/06/17 00:28:13;;;;;;;3.60;3.40;;;17.10;95.60;;;;;;4979484;28;20998;-88
2022/06/17 00:30:40;;;;;;;3.37;3.13;;;17.10;96.00;;;;;;4961317;28;20459;-89
2022/06/17 00:33:06;;;;;;;3.70;3.40;;;17.10;95.50;;;;;;5038573;28;20721;-87
2022/06/17 00:35:53;;;;;;;3.80;3.50;;;17.10;95.10;;;;;;4966907;28;20461;-88
2022/06/17 00:38:22;;;;;;;3.93;3.63;;;17.10;94.70;;;;;;4991136;28;20822;-88
2022/06/17 00:40:48;;;;;;;3.83;3.50;;;17.00;94.60;;;;;;4958250;28;20645;-88
2022/06/17 00:43:24;;;;;;;3.70;3.40;;;17.00;94.80;;;;;;4974717;28;20436;-88
2022/06/17 00:45:57;;;;;;;3.53;3.33;;;17.00;95.10;;;;;;4964112;28;20769;-88
2022/06/17 00:48:27;;;;;;;3.60;3.30;;;17.10;94.40;;;;;;4984883;28;20495;-88
2022/06/17 00:50:53;;;;;;;3.77;3.47;;;17.10;93.80;;;;;;4978822;28;20445;-87
2022/06/17 00:53:25;;;;;;;4.63;3.77;;;17.20;94.00;;;;;;4961930;28;20448;-88
2022/06/17 00:56:11;;;;;;;3.63;3.30;;;17.20;94.30;;;;;;4977201;28;20190;-88
2022/06/17 00:58:57;;;;;;;3.70;3.40;;;17.20;94.60;;;;;;4980085;28;20566;-88
2022/06/17 01:01:23;;;;;;;3.97;3.60;;;17.20;95.40;;;;;;4975138;28;20496;-88
2022/06/17 01:03:52;;;;;;;4.00;3.70;;;17.00;95.40;;;;;;4978121;28;20456;-87
2022/06/17 01:06:24;;;;;;;5.17;3.33;;;17.00;95.10;;;;;;4982028;28;20453;-89
2022/06/17 01:11:46;;;;;;;5.03;3.43;;;16.90;94.60;;;;;;4963163;28;20472;-88
2022/06/17 01:14:15;;;;;;;3.53;3.23;;;17.00;94.60;;;;;;4963648;28;20454;-89
2022/06/17 01:16:42;;;;;;;4.13;3.70;;;16.90;95.40;;;;;;4999596;27;20188;-88
2022/06/17 01:19:20;;;;;;;4.03;3.73;;;16.90;96.50;;;;;;4964293;28;20586;-88
2022/06/17 01:21:53;;;;;;;4.37;4.00;;;16.80;96.30;;;;;;4974078;28;20955;-88
2022/06/17 01:24:19;;;;;;;3.33;3.03;;;16.80;97.30;;;;;;5038928;28;20521;-88
2022/06/17 01:26:46;;;;;;;4.07;3.23;;;16.70;97.50;;;;;;4975048;28;21495;-88
2022/06/17 01:29:15;;;;;;;5.43;3.93;;;16.60;97.30;;;;;;4976806;28;20935;-88
2022/06/17 01:31:49;;;;;;;3.80;3.50;;;16.70;96.90;;;;;;4978887;28;20443;-88
2022/06/17 01:34:17;;;;;;;4.00;3.70;;;16.70;97.10;;;;;;4985068;28;20444;-87
2022/06/17 01:36:43;;;;;;;4.87;3.80;;;16.80;97.40;;;;;;4985514;28;20449;-88
2022/06/17 01:39:11;;;;;;;4.40;4.10;;;16.80;97.00;;;;;;4964073;28;20441;-88
2022/06/17 01:41:37;;;;;;;4.47;4.17;;;16.80;96.90;;;;;;4976285;28;20437;-88
2022/06/17 01:44:20;;;;;;;4.40;4.00;;;16.70;96.60;;;;;;4999462;27;20926;-88
2022/06/17 01:46:51;;;;;;;6.73;4.30;;;16.70;96.50;;;;;;4978533;28;20441;-88
2022/06/17 01:49:27;;;;;;;4.50;4.10;;;16.60;96.70;;;;;;4980929;28;20472;-88
2022/06/17 01:51:58;;;;;;;4.77;4.40;;;16.50;96.90;;;;;;4962447;28;20456;-88
2022/06/17 01:54:30;;;;;;;5.33;4.83;;;16.50;97.60;;;;;;4962461;28;20444;-89
2022/06/17 01:56:59;;;;;;;5.93;4.90;;;16.50;97.80;;;;;;4978504;28;20483;-88
2022/06/17 01:59:29;;;;;;;5.00;4.50;;;16.50;97.80;;;;;;4968699;28;20437;-88
2022/06/17 02:01:58;;;;;;;4.63;4.33;;;16.40;98.30;;;;;;4974164;28;20451;-88
2022/06/17 02:04:37;;;;;;;4.80;4.40;;;16.40;98.70;;;;;;4968945;28;20444;-87
2022/06/17 02:07:28;;;;;;;4.83;4.50;;;16.40;99.30;;;;;;4972440;28;20460;-87
2022/06/17 02:09:55;;;;;;;4.37;3.97;;;16.30;99.70;;;;;;4961897;28;21303;-87
2022/06/17 02:12:25;;;;;;;3.90;3.60;;;16.20;99.90;;;;;;5041567;28;20772;-87
2022/06/17 02:14:54;;;;;;;4.60;4.20;;;16.10;99.90;;;;;;4971573;28;22347;-87
2022/06/17 02:17:26;;;;;;;4.53;3.90;;;15.90;99.90;;;;;;4974636;28;20531;-88
2022/06/17 02:19:54;;;;;;;4.67;4.37;;;15.80;99.90;;;;;;4964969;28;20805;-88
2022/06/17 02:22:25;;;;;;;4.53;4.13;;;15.80;99.90;;;;;;4971922;28;20452;-88
2022/06/17 02:24:56;;;;;;;3.93;3.63;;;15.70;99.90;;;;;;4971672;28;20456;-87
2022/06/17 02:27:22;;;;;;;3.73;3.53;;;15.70;99.90;;;;;;4974453;28;20444;-88
2022/06/17 02:29:49;;;;;;;4.17;3.87;;;15.70;99.90;;;;;;4975766;28;20989;-87
2022/06/17 02:32:17;;;;;;;4.93;4.50;;;15.50;99.90;;;;;;4976527;28;20437;-88
2022/06/17 02:35:04;;;;;;;4.80;4.33;;;15.50;99.90;;;;;;4979544;28;20661;-88
2022/06/17 02:37:31;;;;;;;4.60;4.13;;;15.50;99.90;;;;;;4974329;28;20479;-88
2022/06/17 02:40:00;;;;;;;4.77;4.40;;;15.40;99.90;;;;;;4957146;28;20844;-88
2022/06/17 02:42:30;;;;;;;6.17;4.20;;;15.50;99.90;;;;;;4972851;28;20437;-88
2022/06/17 02:45:00;;;;;;;6.00;5.50;;;15.60;99.90;;;;;;4974433;28;21630;-88
2022/06/17 02:47:26;;;;;;;5.43;4.90;;;15.60;99.90;;;;;;4972977;28;20535;-88
2022/06/17 02:49:57;;;;;;;6.00;5.43;;;15.50;99.90;;;;;;4979637;28;23611;-87
2022/06/17 02:52:34;;;;;;;5.20;4.80;;;15.40;99.90;;;;;;4979650;28;20470;-87
2022/06/17 02:55:12;;;;;;;5.70;5.20;;;15.40;99.90;;;;;;4977258;28;21922;-87
2022/06/17 02:57:39;;;;;;;5.60;5.10;;;15.30;99.90;;;;;;4979722;28;20474;-87
2022/06/17 03:00:17;;;;;;;5.37;4.90;;;15.40;99.90;;;;;;5000523;28;20459;-88
2022/06/17 03:02:52;;;;;;;5.20;4.80;;;15.40;99.90;;;;;;4970795;28;20462;-88
2022/06/17 03:05:28;;;;;;;5.63;4.33;;;15.40;99.90;;;;;;4977935;28;20533;-88
2022/06/17 03:07:57;;;;;;;5.23;4.83;;;15.30;99.90;;;;;;4974829;28;20455;-88
2022/06/17 03:10:34;;;;;;;4.90;4.60;;;15.20;99.90;;;;;;4968241;28;22196;-88
2022/06/17 03:13:13;;;;;;;5.53;5.07;;;15.20;99.90;;;;;;4978104;28;20503;-87
2022/06/17 03:15:45;;;;;;;4.87;4.57;;;14.90;99.90;;;;;;4987692;28;20462;-87
2022/06/17 03:18:11;;;;;;;5.20;4.70;;;14.90;99.90;;;;;;4975911;28;20471;-88
2022/06/17 03:20:38;;;;;;;5.17;4.77;;;14.90;99.90;;;;;;4990671;28;20543;-87
2022/06/17 03:23:25;;;;;;;5.63;4.87;;;15.00;99.90;;;;;;4980715;28;20447;-87
2022/06/17 03:26:00;;;;;;;5.80;5.20;;;14.90;99.90;;;;;;4961273;28;20455;-87
2022/06/17 03:28:32;;;;;;;6.80;4.70;;;14.90;99.90;;;;;;4973080;28;20455;-88
2022/06/17 03:31:07;;;;;;;5.30;4.90;;;14.80;99.90;;;;;;4989508;28;20447;-88
2022/06/17 03:33:41;;;;;;;5.53;5.03;;;14.80;99.90;;;;;;4992079;28;20443;-88
2022/06/17 03:36:14;;;;;;;6.17;5.57;;;14.70;99.90;;;;;;5003037;28;20475;-88
2022/06/17 03:38:52;;;;;;;6.47;5.17;;;14.80;99.90;;;;;;4981073;28;20451;-88
2022/06/17 03:41:43;;;;;;;5.33;5.03;;;14.80;99.90;;;;;;4962562;28;20540;-87
2022/06/17 03:44:18;;;;;;;6.00;5.60;;;14.90;99.90;;;;;;4978255;28;20489;-87
2022/06/17 03:46:53;;;;;;;5.83;5.43;;;14.90;99.90;;;;;;4978215;28;20542;-87
2022/06/17 03:49:27;;;;;;;5.67;5.17;;;14.90;99.90;;;;;;4973734;28;20551;-88
2022/06/17 03:51:58;;;;;;;5.60;4.60;;;14.90;99.90;;;;;;4974751;28;20443;-87
2022/06/17 03:54:24;;;;;;;4.73;4.37;;;14.90;99.90;;;;;;4986107;28;20491;-87
2022/06/17 03:56:52;;;;;;;5.40;4.90;;;15.00;99.90;;;;;;4980848;28;20815;-88
2022/06/17 03:59:36;;;;;;;5.60;5.20;;;15.00;99.90;;;;;;4981153;28;20499;-88
2022/06/17 04:02:10;;;;;;;5.67;4.83;;;15.10;99.90;;;;;;4979921;28;20529;-87
2022/06/17 04:04:43;;;;;;;6.00;5.50;;;15.20;99.90;;;;;;4975073;28;20435;-88
2022/06/17 04:07:14;;;;;;;5.13;4.73;;;15.30;99.90;;;;;;4965050;28;20443;-88
2022/06/17 04:09:45;;;;;;;5.13;4.60;;;15.20;99.90;;;;;;5000794;28;20482;-89
2022/06/17 04:12:14;;;;;;;4.60;4.30;;;15.20;99.90;;;;;;4996313;27;20894;-87
2022/06/17 04:14:43;;;;;;;4.47;4.07;;;15.20;99.90;;;;;;4979391;28;20487;-89
2022/06/17 04:17:36;;;;;;;5.07;4.57;;;15.10;99.90;;;;;;4985223;28;20439;-88
2022/06/17 04:20:39;;;;;;;5.33;4.83;;;15.10;99.90;;;;;;4985667;28;20448;-90
2022/06/17 04:23:14;;;;;;;5.37;4.93;;;15.10;99.90;;;;;;4981067;28;20444;-88
2022/06/17 04:25:58;;;;;;;5.67;5.27;;;15.10;99.90;;;;;;5002467;27;20439;-88
2022/06/17 04:28:32;;;;;;;5.40;5.00;;;15.20;99.90;;;;;;4988985;28;20470;-88
2022/06/17 04:31:06;;;;;;;5.20;4.80;;;15.30;99.90;;;;;;5004739;28;20496;-88
2022/06/17 04:33:50;;;;;;;5.10;4.60;;;15.30;99.90;;;;;;4991136;28;20473;-88
2022/06/17 04:36:27;;;;;;;6.17;5.57;;;15.40;99.90;;;;;;4975266;28;20437;-88
2022/06/17 04:38:56;;;;;;;5.37;4.97;;;15.40;99.90;;;;;;4984639;28;20559;-88
2022/06/17 04:41:26;;;;;;;6.00;5.30;;;15.50;99.90;;;;;;4976893;28;20452;-88
2022/06/17 04:43:55;;;;;;;6.10;5.47;;;15.50;99.90;;;;;;4974163;28;20872;-88
2022/06/17 04:46:23;;;;;;;5.97;5.47;;;15.50;99.90;;;;;;4977943;28;20471;-88
2022/06/17 04:48:51;;;;;;;5.63;5.13;;;15.50;99.90;;;;;;4965756;28;20559;-88
2022/06/17 04:51:17;;;;;;;6.60;5.57;;;15.50;99.90;;;;;;4977181;28;20444;-88
2022/06/17 04:53:45;;;;;;;5.73;5.33;;;15.40;99.90;;;;;;4991335;28;21296;-88
2022/06/17 04:56:30;;;;;;;5.03;4.60;;;15.30;99.90;;;;;;4986928;28;20533;-88
2022/06/17 04:58:56;;;;;;;7.13;5.00;;;15.30;99.90;;;;;;4978136;28;20633;-88
2022/06/17 05:01:24;;;;;;;5.40;5.00;;;15.40;99.90;;;;;;4956884;28;20567;-88
2022/06/17 05:03:52;;;;;;;5.33;4.47;;;15.50;99.90;;;;;;4972544;28;20844;-88
2022/06/17 05:06:17;;;;;;;5.30;4.83;;;15.60;99.90;;;;;;4971588;28;20448;-88
2022/06/17 05:08:57;;;;;;;5.60;5.20;;;15.60;99.90;;;;;;4988082;28;20555;-88
2022/06/17 05:11:34;;;;;;;5.13;4.63;;;15.50;99.90;;;;;;4982123;28;20539;-88
2022/06/17 05:14:19;;;;;;;5.23;4.83;;;15.60;99.90;;;;;;4985518;28;20448;-88
2022/06/17 05:16:44;;;;;;;5.47;5.03;;;15.70;99.90;;;;;;4972063;28;21017;-88
2022/06/17 05:19:10;;;;;;;8.97;5.50;;;15.80;99.90;;;;;;4976841;28;20443;-88
2022/06/17 05:21:36;;;;;;;5.10;4.70;;;16.00;99.90;;;;;;4973706;28;20664;-89
2022/06/17 05:24:02;;;;;;;5.23;4.83;;;16.00;99.90;;;;;;4986673;28;20718;-89
2022/06/17 05:26:27;;;;;;;5.60;5.20;;;16.20;99.90;;;;;;4984780;28;20196;-88
2022/06/17 05:28:53;;;;;;;6.73;5.90;;;16.20;99.90;;;;;;4985927;28;20554;-89
2022/06/17 05:31:21;;;;;;;6.37;5.80;;;16.20;99.90;;;;;;4973490;28;20749;-88
2022/06/17 05:33:47;;;;;;;6.47;6.07;;;16.20;99.90;;;;;;4985400;28;20196;-88
2022/06/17 05:36:16;;;;;;;7.07;6.40;;;16.20;99.90;;;;;;4973820;28;21456;-88
2022/06/17 05:38:54;;;;;;;6.13;5.53;;;16.10;99.90;;;;;;4982726;28;20442;-89
2022/06/17 05:41:23;;;;;;;5.80;5.30;;;16.20;99.90;;;;;;4968445;28;20470;-89
2022/06/17 05:43:49;;;;;;;6.47;5.97;;;16.30;99.90;;;;;;4976614;28;20508;-89
2022/06/17 05:46:16;;;;;;;6.90;6.20;;;16.40;99.90;;;;;;4977548;28;20497;-88
2022/06/17 05:48:41;;;;;;;6.13;5.63;;;16.60;99.90;;;;;;4980937;28;20532;-88
2022/06/17 05:51:09;;;;;;;5.67;5.17;;;16.70;99.90;;;;;;4974889;28;20484;-88
2022/06/17 05:53:35;;;;;;;6.13;5.73;;;16.70;99.90;;;;;;4980022;28;20189;-88
2022/06/17 05:56:00;;;;;;;6.03;5.30;;;16.80;99.90;;;;;;4964934;28;20452;-89
2022/06/17 05:58:26;;;;;;;4.70;4.40;;;16.90;99.90;;;;;;4964266;28;20185;-88
2022/06/17 06:00:52;;;;;;;4.80;4.50;;;17.00;99.90;;;;;;4968299;28;20188;-89
2022/06/17 06:03:23;;;;;;;5.00;4.50;;;17.10;99.90;;;;;;4983439;28;20736;-89
2022/06/17 06:05:49;;;;;;;5.10;4.70;;;16.90;99.90;;;;;;4973429;28;20189;-88
2022/06/17 06:08:15;;;;;;;5.20;4.43;;;16.90;99.90;;;;;;4969348;28;20483;-89
2022/06/17 06:10:41;;;;;;;5.60;5.20;;;17.00;99.90;;;;;;4977125;28;20267;-89
2022/06/17 06:13:08;;;;;;;5.23;4.50;;;17.20;99.90;;;;;;4981920;28;20181;-89
2022/06/17 06:15:39;;;;;;;5.07;4.67;;;17.30;99.90;;;;;;4964715;28;21256;-89
2022/06/17 06:18:12;;;;;;;5.40;5.00;;;17.50;99.90;;;;;;4973385;28;20789;-89
2022/06/17 06:20:38;;;;;;;4.90;4.60;;;17.60;99.90;;;;;;4955099;28;20436;-89
2022/06/17 06:23:04;;;;;;;5.90;5.43;;;17.80;99.40;;;;;;4968371;28;20872;-89
2022/06/17 06:25:30;;;;;;;6.00;5.50;;;18.00;99.10;;;;;;4973427;28;20444;-88
2022/06/17 06:27:55;;;;;;;5.10;4.70;;;18.10;98.80;;;;;;4962903;28;20793;-89
2022/06/17 06:30:29;;;;;;;5.37;4.87;;;18.30;98.60;;;;;;4960579;28;20483;-88
2022/06/17 06:32:58;;;;;;;4.77;4.10;;;18.40;98.90;;;;;;4969170;28;20606;-88
2022/06/17 06:35:30;;;;;;;5.53;4.50;;;18.50;97.80;;;;;;4968469;28;20444;-88
2022/06/17 06:37:59;;;;;;;5.43;4.93;;;18.60;98.20;;;;;;4972257;28;20444;-87
2022/06/17 06:40:26;;;;;;;4.73;4.33;;;18.60;98.30;;;;;;4966880;28;20466;-88
2022/06/17 06:42:52;;;;;;;4.57;4.20;;;18.60;97.50;;;;;;4993188;28;20686;-86
2022/06/17 06:45:24;;;;;;;5.23;4.73;;;18.70;97.80;;;;;;4986666;28;20447;-87
2022/06/17 06:47:54;;;;;;;5.20;4.60;;;18.80;97.70;;;;;;4952919;28;20432;-84
2022/06/17 06:50:24;;;;;;;4.93;4.43;;;18.90;98.50;;;;;;4944914;28;20484;-87
2022/06/17 06:52:50;;;;;;;4.47;4.17;;;19.00;98.70;;;;;;4951497;28;20547;-87
2022/06/17 06:55:16;;;;;;;4.43;4.13;;;19.00;97.70;;;;;;4967693;28;20444;-86
2022/06/17 06:57:51;;;;;;;5.33;4.93;;;19.10;98.00;;;;;;4956447;28;20215;-87
2022/06/17 07:00:20;;;;;;;7.37;6.77;;;19.20;97.40;;;;;;4976701;28;20443;-92
2022/06/17 07:02:45;;;;;;;6.17;5.53;;;19.20;98.10;;;;;;4965527;28;20766;-91
2022/06/17 07:05:12;;;;;;;5.30;4.90;;;19.20;97.90;;;;;;4976532;28;20447;-86
2022/06/17 07:07:39;;;;;;;4.63;4.30;;;19.10;98.50;;;;;;4947825;28;20754;-86
2022/06/17 07:10:06;;;;;;;4.63;4.33;;;19.30;98.00;;;;;;4978072;28;20471;-83
2022/06/17 07:12:32;;;;;;;5.33;5.03;;;19.40;98.40;;;;;;4980182;28;20564;-85
2022/06/17 07:14:57;;;;;;;5.27;4.87;;;19.50;97.90;;;;;;4985525;28;20973;-83
2022/06/17 07:17:23;;;;;;;6.43;4.90;;;19.60;97.50;;;;;;4986606;28;20189;-87
2022/06/17 07:19:52;;;;;;;5.13;4.63;;;19.80;97.60;;;;;;4977365;28;20220;-87
2022/06/17 07:22:17;;;;;;;5.30;4.80;;;19.90;97.00;;;;;;4974620;28;20189;-87
2022/06/17 07:24:49;;;;;;;4.87;4.47;;;20.10;96.90;;;;;;4982088;28;20440;-87
2022/06/17 07:27:18;;;;;;;4.83;4.40;;;20.00;96.50;;;;;;4965865;28;20189;-88
2022/06/17 07:29:43;;;;;;;5.10;4.67;;;20.00;97.00;;;;;;4987584;28;20484;-87
2022/06/17 07:32:12;;;;;;;4.60;4.30;;;20.20;97.20;;;;;;4980673;28;20447;-87
2022/06/17 07:34:37;;;;;;;4.30;4.00;;;20.40;98.30;;;;;;4987193;28;20461;-87
2022/06/17 07:40:03;;;;;;;4.37;4.00;;;20.70;96.40;;;;;;4981088;28;20666;-87
2022/06/17 07:42:39;;;;;;;4.97;4.37;;;20.90;97.90;;;;;;4974812;28;20690;-86
2022/06/17 07:45:16;;;;;;;5.17;4.67;;;20.90;96.40;;;;;;4988839;28;20438;-88
2022/06/17 07:47:43;;;;;;;4.67;4.37;;;21.10;96.70;;;;;;4985375;28;20513;-86
2022/06/17 07:50:13;;;;;;;5.17;4.60;;;21.10;95.80;;;;;;4981899;28;21878;-85
2022/06/17 07:52:39;;;;;;;4.70;4.30;;;21.10;95.80;;;;;;4978598;28;20450;-85
2022/06/17 07:55:06;;;;;;;4.80;4.40;;;21.30;94.30;;;;;;4977768;28;20474;-86
2022/06/17 07:57:32;;;;;;;4.57;4.27;;;21.50;92.90;;;;;;4960979;28;20189;-89
2022/06/17 08:00:01;;;;;;;4.13;3.83;;;21.30;92.80;;;;;;4981272;28;20440;-86
2022/06/17 08:02:27;;;;;;;4.67;4.37;;;21.20;93.60;;;;;;4987918;28;20193;-87
2022/06/17 08:04:52;;;;;;;4.73;4.33;;;21.10;93.50;;;;;;4972788;28;20430;-90
2022/06/17 08:07:18;;;;;;;4.60;4.20;;;21.00;93.00;;;;;;4982236;28;20317;-88
2022/06/17 08:09:44;;;;;;;5.33;4.43;;;21.10;93.80;;;;;;4987428;28;20227;-87
2022/06/17 08:12:13;;;;;;;4.33;3.90;;;21.30;95.00;;;;;;4965348;28;20308;-86
2022/06/17 08:14:49;;;;;;;5.10;4.70;;;21.50;94.50;;;;;;4987470;28;20207;-87
2022/06/17 08:17:16;;;;;;;4.80;4.30;;;21.80;92.90;;;;;;4962635;28;20553;-87
2022/06/17 08:19:43;;;;;;;4.90;4.50;;;21.90;92.40;;;;;;4981593;28;20448;-87
2022/06/17 08:22:10;;;;;;;3.90;3.60;;;21.90;93.80;;;;;;4956585;28;20455;-87
2022/06/17 08:24:35;;;;;;;4.93;4.53;;;22.10;93.10;;;;;;4957179;28;20439;-86
2022/06/17 08:27:02;;;;;;;4.20;3.90;;;21.80;92.40;;;;;;4970769;28;20539;-87
2022/06/17 08:29:28;;;;;;;4.60;4.20;;;21.70;91.90;;;;;;4974957;28;20627;-86
2022/06/17 08:31:54;;;;;;;5.63;5.10;;;21.80;92.20;;;;;;4959500;28;20451;-86
2022/06/17 08:34:20;;;;;;;4.37;4.07;;;21.90;91.80;;;;;;4971796;28;21408;-86
2022/06/17 08:36:46;;;;;;;4.73;4.43;;;22.20;92.00;;;;;;4962924;28;20458;-86
2022/06/17 08:39:14;;;;;;;3.93;3.60;;;22.50;95.40;;;;;;5035425;28;20246;-87
2022/06/17 08:42:02;;;;;;;5.17;4.67;;;22.60;93.80;;;;;;4993021;27;20508;-87
2022/06/17 08:44:36;;;;;;;4.20;3.90;;;22.60;94.60;;;;;;4967393;28;20452;-87
2022/06/17 08:47:12;;;;;;;5.30;4.90;;;22.90;91.70;;;;;;4965766;28;20440;-87
2022/06/17 08:50:04;;;;;;;4.60;4.30;;;23.00;91.70;;;;;;4970314;28;20548;-88
2022/06/17 08:53:03;;;;;;;4.10;3.90;;;23.20;91.60;;;;;;4970178;28;22054;-87
2022/06/17 08:55:50;;;;;;;6.77;4.57;;;23.30;90.50;;;;;;4966021;28;20458;-88
2022/06/17 08:58:41;;;;;;;4.33;3.97;;;23.20;92.00;;;;;;4987994;27;21773;-87
2022/06/17 09:01:32;;;;;;;4.50;4.20;;;23.40;90.50;;;;;;4977397;28;20579;-87
2022/06/17 09:04:29;;;;;;;3.60;3.40;;;23.60;89.20;;;;;;4970707;28;20448;-90
2022/06/17 09:07:23;;;;;;;3.93;3.73;;;23.60;88.80;;;;;;4977362;28;21281;-91
2022/06/17 09:10:14;;;;;;;4.00;3.60;;;23.50;84.90;;;;;;4966740;28;20484;-86
2022/06/17 09:13:27;;;;;;;3.60;3.40;;;23.50;84.80;;;;;;4967032;28;21303;-86
2022/06/17 09:16:02;;;;;;;2.80;2.60;;;23.70;84.20;;;;;;4990529;28;20899;-86
2022/06/17 09:18:40;;;;;;;3.13;2.93;;;23.80;79.70;;;;;;4957272;28;21455;-86
2022/06/17 09:21:24;;;;;;;3.47;3.10;;;23.80;82.20;;;;;;4975462;28;20443;-87
2022/06/17 09:23:51;;;;;;;5.10;3.23;;;23.80;80.40;;;;;;4976573;28;20446;-86
2022/06/17 09:26:31;;;;;;;3.10;2.90;;;23.80;79.60;;;;;;4956615;28;20531;-87
2022/06/17 09:29:15;;;;;;;3.73;3.50;;;23.80;81.60;;;;;;4982666;28;20476;-86
2022/06/17 09:31:46;;;;;;;3.20;3.00;;;24.00;87.90;;;;;;4968354;28;20436;-86
2022/06/17 09:34:28;;;;;;;3.73;3.43;;;24.10;82.70;;;;;;4989556;28;20956;-86
2022/06/17 09:37:04;;;;;;;3.63;3.33;;;23.70;81.10;;;;;;4964694;28;20459;-85
2022/06/17 09:39:41;;;;;;;4.30;3.53;;;23.90;79.00;;;;;;4957544;28;20443;-86
2022/06/17 09:42:39;;;;;;;3.97;3.67;;;24.00;78.00;;;;;;4975777;28;20444;-86
2022/06/17 09:45:26;;;;;;;3.67;3.47;;;24.20;76.40;;;;;;4971542;28;20775;-86
2022/06/17 09:48:04;;;;;;;3.30;3.10;;;24.40;85.00;;;;;;4987407;28;20949;-85
2022/06/17 09:50:40;;;;;;;3.50;3.20;;;24.60;85.70;;;;;;4981829;27;21074;-86
2022/06/17 09:53:52;;;;;;;3.47;2.90;;;24.60;81.00;;;;;;4991354;27;22671;-86
2022/06/17 09:56:31;;;;;;;3.67;2.93;;;24.90;77.70;;;;;;4991638;28;20672;-86
2022/06/17 09:59:13;;;;;;;3.33;3.13;;;24.80;71.30;;;;;;4965537;28;20447;-86
2022/06/17 10:01:40;;;;;;;3.37;3.07;;;24.80;72.90;;;;;;4971936;28;20772;-86
2022/06/17 10:04:18;;;;;;;3.30;3.00;;;25.00;79.10;;;;;;4973778;28;20603;-86
2022/06/17 10:06:58;;;;;;;2.87;2.67;;;25.10;74.40;;;;;;4974142;28;20439;-85
2022/06/17 10:09:40;;;;;;;3.43;3.20;;;25.20;74.40;;;;;;5034917;28;20496;-86
2022/06/17 10:12:09;;;;;;;3.30;3.10;;;25.40;70.80;;;;;;4974601;28;21069;-85
2022/06/17 10:15:01;;;;;;;4.47;3.20;;;25.10;78.40;;;;;;4973031;28;20767;-86
2022/06/17 10:20:36;;;;;;;2.70;2.60;;;24.60;74.30;;;;;;4984992;28;20547;-85
2022/06/17 10:23:14;;;;;;;3.40;3.10;;;24.70;82.50;;;;;;4992737;28;20435;-86
2022/06/17 10:26:05;;;;;;;2.83;2.63;;;25.00;78.70;;;;;;4977246;28;21390;-86
2022/06/17 10:29:07;;;;;;;3.00;2.80;;;25.40;77.20;;;;;;4979097;28;20741;-86
2022/06/17 10:31:45;;;;;;;2.90;2.70;;;25.80;71.60;;;;;;4965133;28;20478;-89
2022/06/17 10:34:37;;;;;;;3.17;2.67;;;26.20;65.90;;;;;;4969204;28;20440;-86
2022/06/17 10:37:05;;;;;;;3.07;2.87;;;26.50;65.10;;;;;;4977488;28;20973;-86
2022/06/17 10:39:34;;;;;;;3.00;2.80;;;26.50;64.80;;;;;;4970458;28;20432;-85
2022/06/17 10:42:00;;;;;;;3.23;2.90;;;26.50;69.70;;;;;;4978553;28;20543;-86
2022/06/17 10:44:29;;;;;;;3.47;3.27;;;26.60;64.50;;;;;;4982604;28;20478;-85
2022/06/17 10:47:43;;;;;;;3.07;2.87;;;26.60;71.30;;;;;;4987391;28;20488;-82
2022/06/17 10:50:22;;;;;;;2.90;2.70;;;26.60;65.70;;;;;;4989694;28;21059;-83
2022/06/17 10:53:30;;;;;;;2.97;2.77;;;26.90;66.40;;;;;;4958053;28;20443;-83
2022/06/17 10:55:58;;;;;;;3.37;2.97;;;27.20;71.10;;;;;;4975679;28;20440;-84
2022/06/17 10:58:33;;;;;;;3.10;2.90;;;26.90;65.70;;;;;;4978480;28;20675;-85
2022/06/17 11:01:15;;;;;;;2.83;2.63;;;26.90;67.70;;;;;;4974287;28;20443;-86
2022/06/17 11:03:45;;;;;;;2.87;2.57;;;27.10;66.80;;;;;;4979941;28;21171;-85
2022/06/17 11:06:17;;;;;;;2.60;2.40;;;27.00;68.70;;;;;;4979894;28;20454;-84
2022/06/17 11:08:49;;;;;;;3.03;2.80;;;26.90;63.50;;;;;;5040068;28;20446;-84
2022/06/17 11:14:29;;;;;;;2.70;2.30;;;26.90;58.30;;;;;;4987544;28;20450;-85
2022/06/17 11:16:55;;;;;;;3.20;3.00;;;27.10;57.50;;;;;;4986053;28;20438;-84
2022/06/17 11:19:23;;;;;;;2.93;2.73;;;27.30;62.30;;;;;;4971741;28;20505;-89
2022/06/17 11:22:32;;;;;;;3.70;3.10;;;27.40;64.60;;;;;;4981073;28;20533;-87
2022/06/17 11:25:06;;;;;;;5.53;5.10;;;27.50;64.30;;;;;;5034913;28;20439;-86
2022/06/17 11:27:42;;;;;;;5.13;4.73;;;27.60;63.50;;;;;;4981885;28;20464;-86
2022/06/17 11:30:29;;;;;;;3.23;2.87;;;27.70;59.20;;;;;;4986671;28;20478;-89
2022/06/17 11:32:57;;;;;;;3.30;3.10;;;27.10;60.80;;;;;;5007533;28;20467;-88
2022/06/17 11:35:37;;;;;;;2.87;2.77;;;27.30;57.90;;;;;;4981628;28;20455;-86
2022/06/17 11:38:15;;;;;;;3.00;2.90;;;27.50;57.80;;;;;;4992667;28;20855;-88
2022/06/17 11:40:55;;;;;;;5.30;3.33;;;27.60;58.40;;;;;;4978811;28;20893;-86
2022/06/17 11:43:40;;;;;;;5.43;3.40;;;27.90;64.40;;;;;;4972166;28;20448;-86
2022/06/17 11:46:19;;;;;;;5.97;4.60;;;27.90;67.60;;;;;;4966767;28;21987;-86
2022/06/17 11:48:48;;;;;;;3.20;3.00;;;28.30;61.70;;;;;;4980671;28;20748;-86
2022/06/17 11:51:24;;;;;;;2.77;2.57;;;28.60;55.50;;;;;;4982859;28;20539;-86
2022/06/17 11:54:04;;;;;;;2.73;2.60;;;28.50;54.30;;;;;;4974789;28;21651;-86
2022/06/17 11:56:41;;;;;;;3.47;3.17;;;28.50;55.80;;;;;;4974055;28;20452;-87
2022/06/17 11:59:13;;;;;;;2.70;2.50;;;28.40;64.90;;;;;;4953560;28;20776;-85
2022/06/17 12:01:40;;;;;;;3.97;3.60;;;28.30;65.40;;;;;;4975308;28;21000;-86
2022/06/17 12:04:26;;;;;;;3.00;2.73;;;28.20;58.50;;;;;;4990620;28;20758;-87
2022/06/17 12:06:51;;;;;;;2.63;2.43;;;28.60;62.40;;;;;;4986355;28;20431;-87
2022/06/17 12:09:34;;;;;;;3.50;3.20;;;29.10;57.80;;;;;;4982885;28;20830;-86
2022/06/17 12:12:04;;;;;;;2.90;2.70;;;29.00;59.70;;;;;;4969013;28;20451;-87
2022/06/17 12:15:04;;;;;;;3.23;3.03;;;28.90;64.30;;;;;;4969881;28;20448;-86
2022/06/17 12:17:31;;;;;;;5.00;3.80;;;29.10;56.70;;;;;;4975529;28;20488;-88
2022/06/17 12:19:58;;;;;;;2.60;2.40;;;29.30;55.40;;;;;;4987777;28;21079;-87
2022/06/17 12:22:45;;;;;;;2.93;2.73;;;28.80;56.50;;;;;;4989528;28;20470;-86
2022/06/17 12:25:33;;;;;;;3.27;2.77;;;28.50;55.50;;;;;;4975066;28;20452;-86
2022/06/17 12:28:07;;;;;;;3.63;2.70;;;28.60;55.70;;;;;;4966064;28;20448;-87
2022/06/17 12:30:45;;;;;;;3.53;3.23;;;28.80;57.70;;;;;;4987659;28;20483;-85
2022/06/17 12:33:33;;;;;;;2.90;2.70;;;29.20;60.00;;;;;;4979067;28;20447;-86
2022/06/17 12:36:19;;;;;;;2.70;2.50;;;29.20;56.20;;;;;;4987732;28;20451;-86
2022/06/17 12:39:01;;;;;;;2.63;2.53;;;29.10;57.40;;;;;;4979472;28;20467;-86
2022/06/17 12:41:47;;;;;;;2.90;2.70;;;28.80;58.10;;;;;;4966051;28;20827;-86
2022/06/17 12:44:46;;;;;;;2.93;2.73;;;29.10;58.00;;;;;;5049667;28;20543;-86
2022/06/17 12:47:29;;;;;;;2.73;2.63;;;29.20;58.40;;;;;;4994278;28;21351;-87
2022/06/17 12:53:28;;;;;;;2.63;2.50;;;29.50;61.00;;;;;;4998574;28;20819;-86
2022/06/17 12:56:06;;;;;;;2.60;2.40;;;29.50;54.70;;;;;;4989427;28;20528;-87
2022/06/17 12:58:40;;;;;;;2.40;2.30;;;29.90;52.70;;;;;;4987893;28;20435;-85
2022/06/17 13:01:16;;;;;;;2.90;2.47;;;29.90;53.10;;;;;;4971760;28;20444;-85
2022/06/17 13:04:02;;;;;;;3.43;2.80;;;29.50;56.60;;;;;;4979495;28;21058;-86
2022/06/17 13:06:40;;;;;;;3.20;3.00;;;29.50;57.20;;;;;;4981877;28;20467;-86
2022/06/17 13:09:31;;;;;;;3.00;2.80;;;29.70;56.30;;;;;;5009667;28;20459;-85
2022/06/17 13:12:06;;;;;;;2.90;2.77;;;29.60;50.60;;;;;;4982961;28;21026;-86
2022/06/17 13:14:57;;;;;;;3.20;3.00;;;29.30;51.80;;;;;;4979515;28;21147;-85
2022/06/17 13:17:52;;;;;;;2.77;2.57;;;29.40;56.30;;;;;;4984647;28;20788;-85
2022/06/17 13:20:27;;;;;;;3.10;2.87;;;30.00;55.30;;;;;;4970237;28;20476;-86
2022/06/17 13:23:22;;;;;;;2.50;2.30;;;30.20;54.20;;;;;;5001194;28;20447;-85
2022/06/17 13:26:06;;;;;;;2.80;2.60;;;30.70;48.60;;;;;;4988840;28;20440;-88
2022/06/17 13:28:41;;;;;;;3.40;2.47;;;31.10;50.80;;;;;;4968012;28;20461;-86
2022/06/17 13:31:18;;;;;;;2.87;2.67;;;31.20;53.60;;;;;;4993873;28;20474;-88
2022/06/17 13:34:18;;;;;;;3.40;2.93;;;31.00;51.40;;;;;;4988783;28;20467;-88
2022/06/17 13:37:00;;;;;;;3.00;2.80;;;31.30;53.80;;;;;;4978008;28;20563;-87
2022/06/17 13:39:30;;;;;;;2.67;2.47;;;31.20;54.30;;;;;;4975170;28;20454;-89